sensor_id;sensor_type;location;lat;lon;timestamp;P1;durP1;ratioP1;P2;durP2;ratioP2
2710;SDS011;20721;47.402;8.550;2024-02-28T00:01:26;28.65;;;28.22;;
2710;SDS011;20721;47.402;8.550;2024-02-28T00:03:24;28.03;;;27.32;;
2710;SDS011;20721;47.402;8.550;2024-02-28T00:05:24;29.48;;;28.70;;
2710;SDS011;20721;47.402;8.550;2024-02-28T00:07:24;27.45;;;26.82;;
2710;SDS011;20721;47.402;8.550;2024-02-28T00:09:24;26.89;;;26.45;;
2710;SDS011;20721;47.402;8.550;2024-02-28T00:11:24;29.40;;;28.92;;
2710;SDS011;20721;47.402;8.550;2024-02-28T00:13:24;29.61;;;29.15;;
2710;SDS011;20721;47.402;8.550;2024-02-28T00:15:24;26.30;;;26.23;;
2710;SDS011;20721;47.402;8.550;2024-02-28T00:17:24;28.36;;;27.85;;
2710;SDS011;20721;47.402;8.550;2024-02-28T00:19:24;27.76;;;27.46;;
2710;SDS011;20721;47.402;8.550;2024-02-28T00:21:24;27.09;;;26.53;;
2710;SDS011;20721;47.402;8.550;2024-02-28T00:23:24;28.42;;;27.88;;
2710;SDS011;20721;47.402;8.550;2024-02-28T00:25:25;30.70;;;29.92;;
2710;SDS011;20721;47.402;8.550;2024-02-28T00:27:24;27.67;;;27.23;;
2710;SDS011;20721;47.402;8.550;2024-02-28T00:30:24;28.12;;;27.27;;
2710;SDS011;20721;47.402;8.550;2024-02-28T00:32:24;28.14;;;27.75;;
2710;SDS011;20721;47.402;8.550;2024-02-28T00:34:24;29.00;;;28.51;;
2710;SDS011;20721;47.402;8.550;2024-02-28T00:36:25;27.32;;;26.94;;
2710;SDS011;20721;47.402;8.550;2024-02-28T00:38:24;27.47;;;26.94;;
2710;SDS011;20721;47.402;8.550;2024-02-28T00:40:24;27.63;;;27.13;;
2710;SDS011;20721;47.402;8.550;2024-02-28T00:42:24;29.15;;;28.43;;
2710;SDS011;20721;47.402;8.550;2024-02-28T00:44:24;28.29;;;27.84;;
2710;SDS011;20721;47.402;8.550;2024-02-28T00:46:24;27.34;;;26.76;;
2710;SDS011;20721;47.402;8.550;2024-02-28T00:51:24;28.71;;;28.59;;
2710;SDS011;20721;47.402;8.550;2024-02-28T00:53:24;26.74;;;26.39;;
2710;SDS011;20721;47.402;8.550;2024-02-28T00:55:24;28.47;;;27.81;;
2710;SDS011;20721;47.402;8.550;2024-02-28T00:57:24;27.77;;;27.51;;
2710;SDS011;20721;47.402;8.550;2024-02-28T00:59:24;27.43;;;27.08;;
2710;SDS011;20721;47.402;8.550;2024-02-28T01:01:24;27.61;;;27.10;;
2710;SDS011;20721;47.402;8.550;2024-02-28T01:04:24;28.05;;;27.40;;
2710;SDS011;20721;47.402;8.550;2024-02-28T01:07:24;28.97;;;28.47;;
2710;SDS011;20721;47.402;8.550;2024-02-28T01:09:24;29.25;;;28.44;;
2710;SDS011;20721;47.402;8.550;2024-02-28T01:12:24;28.64;;;27.99;;
2710;SDS011;20721;47.402;8.550;2024-02-28T01:15:24;27.67;;;27.22;;
2710;SDS011;20721;47.402;8.550;2024-02-28T01:17:24;29.72;;;29.18;;
2710;SDS011;20721;47.402;8.550;2024-02-28T01:19:25;27.37;;;26.92;;
2710;SDS011;20721;47.402;8.550;2024-02-28T01:21:24;29.31;;;28.77;;
2710;SDS011;20721;47.402;8.550;2024-02-28T01:23:24;27.68;;;27.48;;
2710;SDS011;20721;47.402;8.550;2024-02-28T01:25:24;28.48;;;27.86;;
2710;SDS011;20721;47.402;8.550;2024-02-28T01:27:24;27.64;;;26.97;;
2710;SDS011;20721;47.402;8.550;2024-02-28T01:29:24;27.85;;;27.56;;
2710;SDS011;20721;47.402;8.550;2024-02-28T01:32:25;27.68;;;27.33;;
2710;SDS011;20721;47.402;8.550;2024-02-28T01:35:24;29.59;;;28.97;;
2710;SDS011;20721;47.402;8.550;2024-02-28T01:38:24;27.31;;;26.91;;
2710;SDS011;20721;47.402;8.550;2024-02-28T01:40:24;28.07;;;27.52;;
2710;SDS011;20721;47.402;8.550;2024-02-28T01:43:24;28.38;;;28.10;;
2710;SDS011;20721;47.402;8.550;2024-02-28T01:47:24;27.88;;;27.33;;
2710;SDS011;20721;47.402;8.550;2024-02-28T01:49:25;27.70;;;27.40;;
2710;SDS011;20721;47.402;8.550;2024-02-28T01:52:25;27.24;;;26.69;;
2710;SDS011;20721;47.402;8.550;2024-02-28T01:54:25;28.76;;;27.78;;
2710;SDS011;20721;47.402;8.550;2024-02-28T01:56:26;27.59;;;27.14;;
2710;SDS011;20721;47.402;8.550;2024-02-28T01:58:24;27.62;;;26.91;;
2710;SDS011;20721;47.402;8.550;2024-02-28T02:00:25;26.57;;;26.30;;
2710;SDS011;20721;47.402;8.550;2024-02-28T02:03:24;26.91;;;26.52;;
2710;SDS011;20721;47.402;8.550;2024-02-28T02:06:24;27.87;;;27.05;;
2710;SDS011;20721;47.402;8.550;2024-02-28T02:08:24;27.66;;;27.13;;
2710;SDS011;20721;47.402;8.550;2024-02-28T02:10:25;27.16;;;26.89;;
2710;SDS011;20721;47.402;8.550;2024-02-28T02:12:24;26.34;;;26.00;;
2710;SDS011;20721;47.402;8.550;2024-02-28T02:15:24;28.56;;;28.01;;
2710;SDS011;20721;47.402;8.550;2024-02-28T02:17:24;25.88;;;25.58;;
2710;SDS011;20721;47.402;8.550;2024-02-28T02:19:24;28.17;;;27.41;;
2710;SDS011;20721;47.402;8.550;2024-02-28T02:21:30;25.34;;;24.94;;
2710;SDS011;20721;47.402;8.550;2024-02-28T02:24:24;27.78;;;27.38;;
2710;SDS011;20721;47.402;8.550;2024-02-28T02:26:24;26.48;;;26.30;;
2710;SDS011;20721;47.402;8.550;2024-02-28T02:28:25;27.36;;;26.53;;
2710;SDS011;20721;47.402;8.550;2024-02-28T02:30:24;26.95;;;26.95;;
2710;SDS011;20721;47.402;8.550;2024-02-28T02:33:24;25.85;;;25.16;;
2710;SDS011;20721;47.402;8.550;2024-02-28T02:36:24;25.90;;;25.65;;
2710;SDS011;20721;47.402;8.550;2024-02-28T02:38:24;24.34;;;24.05;;
2710;SDS011;20721;47.402;8.550;2024-02-28T02:40:25;28.84;;;27.68;;
2710;SDS011;20721;47.402;8.550;2024-02-28T02:42:25;26.35;;;25.65;;
2710;SDS011;20721;47.402;8.550;2024-02-28T02:44:24;26.08;;;25.28;;
2710;SDS011;20721;47.402;8.550;2024-02-28T02:46:24;24.79;;;24.52;;
2710;SDS011;20721;47.402;8.550;2024-02-28T02:48:24;26.00;;;25.38;;
2710;SDS011;20721;47.402;8.550;2024-02-28T02:51:24;25.79;;;25.45;;
2710;SDS011;20721;47.402;8.550;2024-02-28T02:53:24;26.87;;;26.30;;
2710;SDS011;20721;47.402;8.550;2024-02-28T02:55:25;24.60;;;24.18;;
2710;SDS011;20721;47.402;8.550;2024-02-28T02:57:24;26.07;;;25.21;;
2710;SDS011;20721;47.402;8.550;2024-02-28T03:00:24;26.65;;;26.18;;
2710;SDS011;20721;47.402;8.550;2024-02-28T03:02:24;26.83;;;26.52;;
2710;SDS011;20721;47.402;8.550;2024-02-28T03:04:24;24.98;;;24.63;;
2710;SDS011;20721;47.402;8.550;2024-02-28T03:06:24;25.13;;;24.79;;
2710;SDS011;20721;47.402;8.550;2024-02-28T03:08:24;25.88;;;25.57;;
2710;SDS011;20721;47.402;8.550;2024-02-28T03:10:24;26.11;;;25.66;;
2710;SDS011;20721;47.402;8.550;2024-02-28T03:12:24;25.94;;;25.18;;
2710;SDS011;20721;47.402;8.550;2024-02-28T03:14:24;26.41;;;25.80;;
2710;SDS011;20721;47.402;8.550;2024-02-28T03:16:24;25.98;;;25.74;;
2710;SDS011;20721;47.402;8.550;2024-02-28T03:18:24;26.93;;;26.42;;
2710;SDS011;20721;47.402;8.550;2024-02-28T03:20:24;25.96;;;25.37;;
2710;SDS011;20721;47.402;8.550;2024-02-28T03:22:25;24.38;;;24.18;;
2710;SDS011;20721;47.402;8.550;2024-02-28T03:24:24;25.80;;;25.03;;
2710;SDS011;20721;47.402;8.550;2024-02-28T03:27:24;25.70;;;25.06;;
2710;SDS011;20721;47.402;8.550;2024-02-28T03:29:24;25.38;;;25.00;;
2710;SDS011;20721;47.402;8.550;2024-02-28T03:31:25;24.52;;;24.33;;
2710;SDS011;20721;47.402;8.550;2024-02-28T03:33:24;27.17;;;26.63;;
2710;SDS011;20721;47.402;8.550;2024-02-28T03:35:24;26.33;;;25.86;;
2710;SDS011;20721;47.402;8.550;2024-02-28T03:37:24;25.38;;;25.02;;
2710;SDS011;20721;47.402;8.550;2024-02-28T03:39:25;25.30;;;24.93;;
2710;SDS011;20721;47.402;8.550;2024-02-28T03:41:24;25.69;;;24.95;;
2710;SDS011;20721;47.402;8.550;2024-02-28T03:43:24;24.73;;;24.35;;
2710;SDS011;20721;47.402;8.550;2024-02-28T03:45:27;26.09;;;25.54;;
2710;SDS011;20721;47.402;8.550;2024-02-28T03:47:24;24.00;;;23.70;;
2710;SDS011;20721;47.402;8.550;2024-02-28T03:49:24;24.07;;;23.80;;
2710;SDS011;20721;47.402;8.550;2024-02-28T03:51:24;26.09;;;25.64;;
2710;SDS011;20721;47.402;8.550;2024-02-28T03:53:24;25.07;;;24.26;;
2710;SDS011;20721;47.402;8.550;2024-02-28T03:55:25;25.46;;;24.87;;
2710;SDS011;20721;47.402;8.550;2024-02-28T03:57:24;26.01;;;25.47;;
2710;SDS011;20721;47.402;8.550;2024-02-28T03:59:24;25.73;;;25.34;;
2710;SDS011;20721;47.402;8.550;2024-02-28T04:02:24;24.17;;;23.39;;
2710;SDS011;20721;47.402;8.550;2024-02-28T04:04:24;22.35;;;21.97;;
2710;SDS011;20721;47.402;8.550;2024-02-28T04:07:24;22.85;;;22.19;;
2710;SDS011;20721;47.402;8.550;2024-02-28T04:09:25;21.97;;;21.81;;
2710;SDS011;20721;47.402;8.550;2024-02-28T04:11:25;23.70;;;23.18;;
2710;SDS011;20721;47.402;8.550;2024-02-28T04:13:24;24.09;;;22.97;;
2710;SDS011;20721;47.402;8.550;2024-02-28T04:16:24;20.59;;;20.22;;
2710;SDS011;20721;47.402;8.550;2024-02-28T04:18:25;22.72;;;21.74;;
2710;SDS011;20721;47.402;8.550;2024-02-28T04:20:24;22.65;;;22.20;;
2710;SDS011;20721;47.402;8.550;2024-02-28T04:22:24;22.60;;;22.31;;
2710;SDS011;20721;47.402;8.550;2024-02-28T04:24:28;21.73;;;21.31;;
2710;SDS011;20721;47.402;8.550;2024-02-28T04:26:24;22.53;;;21.96;;
2710;SDS011;20721;47.402;8.550;2024-02-28T04:29:25;20.41;;;20.13;;
2710;SDS011;20721;47.402;8.550;2024-02-28T04:31:24;21.03;;;20.80;;
2710;SDS011;20721;47.402;8.550;2024-02-28T04:33:25;20.84;;;20.77;;
2710;SDS011;20721;47.402;8.550;2024-02-28T04:35:28;20.16;;;19.80;;
2710;SDS011;20721;47.402;8.550;2024-02-28T04:37:25;20.62;;;20.20;;
2710;SDS011;20721;47.402;8.550;2024-02-28T04:41:28;19.82;;;19.28;;
2710;SDS011;20721;47.402;8.550;2024-02-28T04:44:24;19.84;;;19.38;;
2710;SDS011;20721;47.402;8.550;2024-02-28T04:47:25;18.91;;;18.66;;
2710;SDS011;20721;47.402;8.550;2024-02-28T04:49:25;19.64;;;19.26;;
2710;SDS011;20721;47.402;8.550;2024-02-28T04:51:25;19.33;;;19.15;;
2710;SDS011;20721;47.402;8.550;2024-02-28T04:54:25;19.56;;;19.38;;
2710;SDS011;20721;47.402;8.550;2024-02-28T04:56:25;20.74;;;20.41;;
2710;SDS011;20721;47.402;8.550;2024-02-28T04:58:25;20.72;;;20.18;;
2710;SDS011;20721;47.402;8.550;2024-02-28T05:00:25;18.32;;;18.08;;
2710;SDS011;20721;47.402;8.550;2024-02-28T05:02:25;19.68;;;19.20;;
2710;SDS011;20721;47.402;8.550;2024-02-28T05:04:25;18.93;;;18.42;;
2710;SDS011;20721;47.402;8.550;2024-02-28T05:06:25;19.85;;;19.29;;
2710;SDS011;20721;47.402;8.550;2024-02-28T05:08:25;20.97;;;20.25;;
2710;SDS011;20721;47.402;8.550;2024-02-28T05:12:25;19.33;;;18.70;;
2710;SDS011;20721;47.402;8.550;2024-02-28T05:14:25;18.91;;;18.61;;
2710;SDS011;20721;47.402;8.550;2024-02-28T05:16:25;19.63;;;19.34;;
2710;SDS011;20721;47.402;8.550;2024-02-28T05:18:25;19.49;;;19.00;;
2710;SDS011;20721;47.402;8.550;2024-02-28T05:20:25;18.49;;;18.02;;
2710;SDS011;20721;47.402;8.550;2024-02-28T05:22:25;20.70;;;20.29;;
2710;SDS011;20721;47.402;8.550;2024-02-28T05:24:25;22.17;;;21.61;;
2710;SDS011;20721;47.402;8.550;2024-02-28T05:26:25;18.05;;;17.76;;
2710;SDS011;20721;47.402;8.550;2024-02-28T05:28:25;19.35;;;18.88;;
2710;SDS011;20721;47.402;8.550;2024-02-28T05:30:25;17.54;;;17.24;;
2710;SDS011;20721;47.402;8.550;2024-02-28T05:33:25;19.33;;;19.04;;
2710;SDS011;20721;47.402;8.550;2024-02-28T05:35:25;17.80;;;17.60;;
2710;SDS011;20721;47.402;8.550;2024-02-28T05:37:26;17.83;;;17.24;;
2710;SDS011;20721;47.402;8.550;2024-02-28T05:40:25;17.21;;;16.91;;
2710;SDS011;20721;47.402;8.550;2024-02-28T05:42:31;18.76;;;18.35;;
2710;SDS011;20721;47.402;8.550;2024-02-28T05:44:25;17.15;;;16.88;;
2710;SDS011;20721;47.402;8.550;2024-02-28T05:47:25;17.70;;;17.54;;
2710;SDS011;20721;47.402;8.550;2024-02-28T05:49:25;18.07;;;17.83;;
2710;SDS011;20721;47.402;8.550;2024-02-28T05:51:25;18.14;;;17.94;;
2710;SDS011;20721;47.402;8.550;2024-02-28T05:53:25;17.74;;;17.57;;
2710;SDS011;20721;47.402;8.550;2024-02-28T05:55:25;16.86;;;16.66;;
2710;SDS011;20721;47.402;8.550;2024-02-28T05:57:25;19.22;;;18.55;;
2710;SDS011;20721;47.402;8.550;2024-02-28T05:59:25;18.03;;;17.74;;
2710;SDS011;20721;47.402;8.550;2024-02-28T06:01:25;17.83;;;17.60;;
2710;SDS011;20721;47.402;8.550;2024-02-28T06:03:25;17.30;;;17.17;;
2710;SDS011;20721;47.402;8.550;2024-02-28T06:05:25;17.86;;;17.64;;
2710;SDS011;20721;47.402;8.550;2024-02-28T06:07:25;18.01;;;17.69;;
2710;SDS011;20721;47.402;8.550;2024-02-28T06:09:25;18.02;;;17.98;;
2710;SDS011;20721;47.402;8.550;2024-02-28T06:11:25;18.46;;;18.09;;
2710;SDS011;20721;47.402;8.550;2024-02-28T06:13:25;19.50;;;18.87;;
2710;SDS011;20721;47.402;8.550;2024-02-28T06:15:26;18.21;;;17.88;;
2710;SDS011;20721;47.402;8.550;2024-02-28T06:17:25;19.71;;;19.49;;
2710;SDS011;20721;47.402;8.550;2024-02-28T06:19:25;17.71;;;17.63;;
2710;SDS011;20721;47.402;8.550;2024-02-28T06:21:25;19.32;;;18.92;;
2710;SDS011;20721;47.402;8.550;2024-02-28T06:25:29;19.76;;;19.11;;
2710;SDS011;20721;47.402;8.550;2024-02-28T06:27:25;19.50;;;19.04;;
2710;SDS011;20721;47.402;8.550;2024-02-28T06:29:25;20.02;;;19.50;;
2710;SDS011;20721;47.402;8.550;2024-02-28T06:31:26;18.66;;;18.01;;
2710;SDS011;20721;47.402;8.550;2024-02-28T06:33:25;18.03;;;17.77;;
2710;SDS011;20721;47.402;8.550;2024-02-28T06:36:25;18.79;;;18.40;;
2710;SDS011;20721;47.402;8.550;2024-02-28T06:38:25;18.02;;;17.40;;
2710;SDS011;20721;47.402;8.550;2024-02-28T06:40:25;17.53;;;16.95;;
2710;SDS011;20721;47.402;8.550;2024-02-28T06:42:25;17.95;;;17.63;;
2710;SDS011;20721;47.402;8.550;2024-02-28T06:44:25;16.82;;;16.42;;
2710;SDS011;20721;47.402;8.550;2024-02-28T06:46:25;17.08;;;16.72;;
2710;SDS011;20721;47.402;8.550;2024-02-28T06:48:25;16.59;;;16.25;;
2710;SDS011;20721;47.402;8.550;2024-02-28T06:50:25;18.30;;;17.52;;
2710;SDS011;20721;47.402;8.550;2024-02-28T06:52:25;18.45;;;17.96;;
2710;SDS011;20721;47.402;8.550;2024-02-28T06:54:25;17.91;;;17.62;;
2710;SDS011;20721;47.402;8.550;2024-02-28T06:56:25;16.55;;;16.24;;
2710;SDS011;20721;47.402;8.550;2024-02-28T06:58:25;17.51;;;17.30;;
2710;SDS011;20721;47.402;8.550;2024-02-28T07:00:26;18.04;;;17.74;;
2710;SDS011;20721;47.402;8.550;2024-02-28T07:02:25;16.44;;;16.17;;
2710;SDS011;20721;47.402;8.550;2024-02-28T07:04:25;17.10;;;16.73;;
2710;SDS011;20721;47.402;8.550;2024-02-28T07:06:25;16.24;;;16.09;;
2710;SDS011;20721;47.402;8.550;2024-02-28T07:08:25;18.34;;;17.81;;
2710;SDS011;20721;47.402;8.550;2024-02-28T07:10:25;16.59;;;16.19;;
2710;SDS011;20721;47.402;8.550;2024-02-28T07:12:25;16.43;;;16.16;;
2710;SDS011;20721;47.402;8.550;2024-02-28T07:14:28;17.49;;;17.07;;
2710;SDS011;20721;47.402;8.550;2024-02-28T07:16:25;16.90;;;16.58;;
2710;SDS011;20721;47.402;8.550;2024-02-28T07:18:26;16.01;;;15.75;;
2710;SDS011;20721;47.402;8.550;2024-02-28T07:20:25;17.59;;;17.37;;
2710;SDS011;20721;47.402;8.550;2024-02-28T07:22:25;16.76;;;16.55;;
2710;SDS011;20721;47.402;8.550;2024-02-28T07:24:25;17.06;;;16.68;;
2710;SDS011;20721;47.402;8.550;2024-02-28T07:27:26;17.41;;;17.19;;
2710;SDS011;20721;47.402;8.550;2024-02-28T07:29:25;16.93;;;16.65;;
2710;SDS011;20721;47.402;8.550;2024-02-28T07:31:27;16.34;;;16.25;;
2710;SDS011;20721;47.402;8.550;2024-02-28T07:33:25;15.98;;;15.66;;
2710;SDS011;20721;47.402;8.550;2024-02-28T07:35:25;15.72;;;15.45;;
2710;SDS011;20721;47.402;8.550;2024-02-28T07:37:25;16.51;;;16.14;;
2710;SDS011;20721;47.402;8.550;2024-02-28T07:39:25;15.18;;;14.99;;
2710;SDS011;20721;47.402;8.550;2024-02-28T07:41:25;15.92;;;15.64;;
2710;SDS011;20721;47.402;8.550;2024-02-28T07:45:25;15.48;;;15.04;;
2710;SDS011;20721;47.402;8.550;2024-02-28T07:47:25;16.32;;;15.87;;
2710;SDS011;20721;47.402;8.550;2024-02-28T07:49:25;14.49;;;14.33;;
2710;SDS011;20721;47.402;8.550;2024-02-28T07:51:27;15.34;;;15.07;;
2710;SDS011;20721;47.402;8.550;2024-02-28T07:53:26;15.10;;;15.03;;
2710;SDS011;20721;47.402;8.550;2024-02-28T07:55:25;15.09;;;14.83;;
2710;SDS011;20721;47.402;8.550;2024-02-28T07:58:26;15.25;;;15.02;;
2710;SDS011;20721;47.402;8.550;2024-02-28T08:00:28;15.12;;;14.93;;
2710;SDS011;20721;47.402;8.550;2024-02-28T08:02:25;15.28;;;15.01;;
2710;SDS011;20721;47.402;8.550;2024-02-28T08:04:25;15.69;;;15.48;;
2710;SDS011;20721;47.402;8.550;2024-02-28T08:06:26;15.14;;;14.96;;
2710;SDS011;20721;47.402;8.550;2024-02-28T08:08:25;15.50;;;15.19;;
2710;SDS011;20721;47.402;8.550;2024-02-28T08:10:25;16.05;;;15.43;;
2710;SDS011;20721;47.402;8.550;2024-02-28T08:13:25;16.12;;;15.80;;
2710;SDS011;20721;47.402;8.550;2024-02-28T08:15:26;16.55;;;16.19;;
2710;SDS011;20721;47.402;8.550;2024-02-28T08:17:25;14.24;;;14.12;;
2710;SDS011;20721;47.402;8.550;2024-02-28T08:19:25;15.18;;;14.97;;
2710;SDS011;20721;47.402;8.550;2024-02-28T08:21:25;15.15;;;14.82;;
2710;SDS011;20721;47.402;8.550;2024-02-28T08:23:25;15.70;;;15.50;;
2710;SDS011;20721;47.402;8.550;2024-02-28T08:25:26;16.58;;;16.30;;
2710;SDS011;20721;47.402;8.550;2024-02-28T08:27:25;14.91;;;14.68;;
2710;SDS011;20721;47.402;8.550;2024-02-28T08:29:25;14.77;;;14.62;;
2710;SDS011;20721;47.402;8.550;2024-02-28T08:31:25;16.73;;;16.19;;
2710;SDS011;20721;47.402;8.550;2024-02-28T08:33:27;15.62;;;15.43;;
2710;SDS011;20721;47.402;8.550;2024-02-28T08:35:26;15.78;;;15.63;;
2710;SDS011;20721;47.402;8.550;2024-02-28T08:37:26;16.46;;;16.28;;
2710;SDS011;20721;47.402;8.550;2024-02-28T08:39:25;15.98;;;15.50;;
2710;SDS011;20721;47.402;8.550;2024-02-28T08:43:25;16.94;;;16.53;;
2710;SDS011;20721;47.402;8.550;2024-02-28T08:46:26;17.61;;;17.00;;
2710;SDS011;20721;47.402;8.550;2024-02-28T08:48:25;15.19;;;14.85;;
2710;SDS011;20721;47.402;8.550;2024-02-28T08:50:25;17.01;;;16.52;;
2710;SDS011;20721;47.402;8.550;2024-02-28T08:52:25;16.58;;;16.32;;
2710;SDS011;20721;47.402;8.550;2024-02-28T08:55:28;16.78;;;16.54;;
2710;SDS011;20721;47.402;8.550;2024-02-28T08:57:25;16.71;;;16.37;;
2710;SDS011;20721;47.402;8.550;2024-02-28T08:59:25;18.08;;;17.67;;
2710;SDS011;20721;47.402;8.550;2024-02-28T09:01:25;16.56;;;16.20;;
2710;SDS011;20721;47.402;8.550;2024-02-28T09:03:25;16.12;;;15.90;;
2710;SDS011;20721;47.402;8.550;2024-02-28T09:05:25;16.67;;;16.41;;
2710;SDS011;20721;47.402;8.550;2024-02-28T09:07:29;16.07;;;15.94;;
2710;SDS011;20721;47.402;8.550;2024-02-28T09:09:26;16.70;;;16.42;;
2710;SDS011;20721;47.402;8.550;2024-02-28T09:12:25;16.88;;;16.55;;
2710;SDS011;20721;47.402;8.550;2024-02-28T09:14:26;16.18;;;16.00;;
2710;SDS011;20721;47.402;8.550;2024-02-28T09:16:25;15.91;;;15.70;;
2710;SDS011;20721;47.402;8.550;2024-02-28T09:18:26;16.09;;;15.76;;
2710;SDS011;20721;47.402;8.550;2024-02-28T09:20:25;17.16;;;16.79;;
2710;SDS011;20721;47.402;8.550;2024-02-28T09:22:27;16.43;;;16.13;;
2710;SDS011;20721;47.402;8.550;2024-02-28T09:24:25;18.33;;;18.11;;
2710;SDS011;20721;47.402;8.550;2024-02-28T09:26:25;16.52;;;16.29;;
2710;SDS011;20721;47.402;8.550;2024-02-28T09:28:26;17.03;;;16.88;;
2710;SDS011;20721;47.402;8.550;2024-02-28T09:30:25;16.92;;;16.79;;
2710;SDS011;20721;47.402;8.550;2024-02-28T09:32:25;16.89;;;16.74;;
2710;SDS011;20721;47.402;8.550;2024-02-28T09:34:25;15.71;;;15.59;;
2710;SDS011;20721;47.402;8.550;2024-02-28T09:36:25;16.34;;;16.09;;
2710;SDS011;20721;47.402;8.550;2024-02-28T09:38:25;16.83;;;16.59;;
2710;SDS011;20721;47.402;8.550;2024-02-28T09:40:26;17.51;;;17.26;;
2710;SDS011;20721;47.402;8.550;2024-02-28T09:42:25;16.70;;;16.48;;
2710;SDS011;20721;47.402;8.550;2024-02-28T09:44:26;18.55;;;18.03;;
2710;SDS011;20721;47.402;8.550;2024-02-28T09:46:25;17.54;;;17.10;;
2710;SDS011;20721;47.402;8.550;2024-02-28T09:48:27;18.06;;;17.79;;
2710;SDS011;20721;47.402;8.550;2024-02-28T09:50:27;17.30;;;16.93;;
2710;SDS011;20721;47.402;8.550;2024-02-28T09:52:25;17.74;;;17.45;;
2710;SDS011;20721;47.402;8.550;2024-02-28T09:54:25;17.99;;;17.73;;
2710;SDS011;20721;47.402;8.550;2024-02-28T09:56:26;16.50;;;16.09;;
2710;SDS011;20721;47.402;8.550;2024-02-28T09:58:26;16.56;;;16.41;;
2710;SDS011;20721;47.402;8.550;2024-02-28T10:00:29;16.55;;;16.30;;
2710;SDS011;20721;47.402;8.550;2024-02-28T10:02:27;16.31;;;16.05;;
2710;SDS011;20721;47.402;8.550;2024-02-28T10:04:27;18.21;;;17.54;;
2710;SDS011;20721;47.402;8.550;2024-02-28T10:06:25;17.94;;;17.44;;
2710;SDS011;20721;47.402;8.550;2024-02-28T10:08:26;16.98;;;16.64;;
2710;SDS011;20721;47.402;8.550;2024-02-28T10:10:28;18.20;;;17.69;;
2710;SDS011;20721;47.402;8.550;2024-02-28T10:12:25;17.50;;;17.14;;
2710;SDS011;20721;47.402;8.550;2024-02-28T10:14:27;18.88;;;18.58;;
2710;SDS011;20721;47.402;8.550;2024-02-28T10:16:25;16.67;;;16.47;;
2710;SDS011;20721;47.402;8.550;2024-02-28T10:19:25;18.16;;;17.65;;
2710;SDS011;20721;47.402;8.550;2024-02-28T10:21:25;17.75;;;17.29;;
2710;SDS011;20721;47.402;8.550;2024-02-28T10:23:26;18.77;;;18.30;;
2710;SDS011;20721;47.402;8.550;2024-02-28T10:25:27;17.52;;;17.18;;
2710;SDS011;20721;47.402;8.550;2024-02-28T10:28:26;17.51;;;17.13;;
2710;SDS011;20721;47.402;8.550;2024-02-28T10:30:28;17.65;;;17.20;;
2710;SDS011;20721;47.402;8.550;2024-02-28T10:32:25;18.62;;;18.19;;
2710;SDS011;20721;47.402;8.550;2024-02-28T10:34:26;18.59;;;18.15;;
2710;SDS011;20721;47.402;8.550;2024-02-28T10:36:26;17.70;;;17.42;;
2710;SDS011;20721;47.402;8.550;2024-02-28T10:38:26;18.06;;;17.83;;
2710;SDS011;20721;47.402;8.550;2024-02-28T10:40:26;18.88;;;18.34;;
2710;SDS011;20721;47.402;8.550;2024-02-28T10:42:26;16.96;;;16.61;;
2710;SDS011;20721;47.402;8.550;2024-02-28T10:47:26;17.45;;;17.15;;
2710;SDS011;20721;47.402;8.550;2024-02-28T10:49:26;17.58;;;17.19;;
2710;SDS011;20721;47.402;8.550;2024-02-28T10:51:26;16.78;;;16.30;;
2710;SDS011;20721;47.402;8.550;2024-02-28T10:53:36;17.81;;;17.62;;
2710;SDS011;20721;47.402;8.550;2024-02-28T10:55:33;16.97;;;16.75;;
2710;SDS011;20721;47.402;8.550;2024-02-28T10:57:27;17.91;;;17.53;;
2710;SDS011;20721;47.402;8.550;2024-02-28T10:59:25;18.50;;;17.88;;
2710;SDS011;20721;47.402;8.550;2024-02-28T11:01:26;19.40;;;18.90;;
2710;SDS011;20721;47.402;8.550;2024-02-28T11:04:26;18.37;;;18.02;;
2710;SDS011;20721;47.402;8.550;2024-02-28T11:06:27;18.59;;;18.33;;
2710;SDS011;20721;47.402;8.550;2024-02-28T11:08:30;18.54;;;18.20;;
2710;SDS011;20721;47.402;8.550;2024-02-28T11:10:30;18.53;;;18.21;;
2710;SDS011;20721;47.402;8.550;2024-02-28T11:12:34;18.66;;;18.38;;
2710;SDS011;20721;47.402;8.550;2024-02-28T11:14:26;18.51;;;18.05;;
2710;SDS011;20721;47.402;8.550;2024-02-28T11:16:26;19.31;;;18.91;;
2710;SDS011;20721;47.402;8.550;2024-02-28T11:18:26;19.74;;;19.20;;
2710;SDS011;20721;47.402;8.550;2024-02-28T11:20:31;19.18;;;18.89;;
2710;SDS011;20721;47.402;8.550;2024-02-28T11:22:28;21.04;;;20.52;;
2710;SDS011;20721;47.402;8.550;2024-02-28T11:24:29;22.95;;;22.45;;
2710;SDS011;20721;47.402;8.550;2024-02-28T11:26:26;22.18;;;21.88;;
2710;SDS011;20721;47.402;8.550;2024-02-28T11:29:27;19.51;;;18.98;;
2710;SDS011;20721;47.402;8.550;2024-02-28T11:31:26;19.93;;;19.48;;
2710;SDS011;20721;47.402;8.550;2024-02-28T11:33:26;19.47;;;19.29;;
2710;SDS011;20721;47.402;8.550;2024-02-28T11:35:26;19.89;;;19.60;;
2710;SDS011;20721;47.402;8.550;2024-02-28T11:37:26;22.24;;;21.61;;
2710;SDS011;20721;47.402;8.550;2024-02-28T11:39:26;21.33;;;20.61;;
2710;SDS011;20721;47.402;8.550;2024-02-28T11:41:34;19.94;;;19.05;;
2710;SDS011;20721;47.402;8.550;2024-02-28T11:43:26;19.57;;;19.25;;
2710;SDS011;20721;47.402;8.550;2024-02-28T11:45:26;19.62;;;19.34;;
2710;SDS011;20721;47.402;8.550;2024-02-28T11:47:26;19.30;;;19.00;;
2710;SDS011;20721;47.402;8.550;2024-02-28T11:49:26;19.38;;;18.90;;
2710;SDS011;20721;47.402;8.550;2024-02-28T11:51:26;19.24;;;18.68;;
2710;SDS011;20721;47.402;8.550;2024-02-28T11:53:26;19.67;;;19.05;;
2710;SDS011;20721;47.402;8.550;2024-02-28T11:55:26;20.30;;;19.70;;
2710;SDS011;20721;47.402;8.550;2024-02-28T11:57:27;20.91;;;20.18;;
2710;SDS011;20721;47.402;8.550;2024-02-28T11:59:26;18.69;;;18.23;;
2710;SDS011;20721;47.402;8.550;2024-02-28T12:01:34;19.79;;;19.50;;
2710;SDS011;20721;47.402;8.550;2024-02-28T12:03:31;20.28;;;19.85;;
2710;SDS011;20721;47.402;8.550;2024-02-28T12:06:26;18.94;;;18.56;;
2710;SDS011;20721;47.402;8.550;2024-02-28T12:08:27;19.75;;;19.09;;
2710;SDS011;20721;47.402;8.550;2024-02-28T12:10:26;17.37;;;17.07;;
2710;SDS011;20721;47.402;8.550;2024-02-28T12:12:27;19.98;;;19.30;;
2710;SDS011;20721;47.402;8.550;2024-02-28T12:15:28;19.03;;;18.78;;
2710;SDS011;20721;47.402;8.550;2024-02-28T12:17:26;18.97;;;18.60;;
2710;SDS011;20721;47.402;8.550;2024-02-28T12:19:28;18.49;;;18.21;;
2710;SDS011;20721;47.402;8.550;2024-02-28T12:21:26;19.16;;;18.87;;
2710;SDS011;20721;47.402;8.550;2024-02-28T12:23:28;19.99;;;19.37;;
2710;SDS011;20721;47.402;8.550;2024-02-28T12:25:28;20.42;;;19.89;;
2710;SDS011;20721;47.402;8.550;2024-02-28T12:27:26;19.43;;;18.79;;
2710;SDS011;20721;47.402;8.550;2024-02-28T12:29:26;19.32;;;18.78;;
2710;SDS011;20721;47.402;8.550;2024-02-28T12:31:26;18.62;;;18.33;;
2710;SDS011;20721;47.402;8.550;2024-02-28T12:33:26;18.64;;;18.23;;
2710;SDS011;20721;47.402;8.550;2024-02-28T12:35:26;20.09;;;19.70;;
2710;SDS011;20721;47.402;8.550;2024-02-28T12:37:26;20.38;;;19.81;;
2710;SDS011;20721;47.402;8.550;2024-02-28T12:39:26;18.77;;;18.55;;
2710;SDS011;20721;47.402;8.550;2024-02-28T12:41:26;20.45;;;20.02;;
2710;SDS011;20721;47.402;8.550;2024-02-28T12:43:26;21.40;;;21.06;;
2710;SDS011;20721;47.402;8.550;2024-02-28T12:45:26;23.26;;;22.53;;
2710;SDS011;20721;47.402;8.550;2024-02-28T12:47:26;22.36;;;21.58;;
2710;SDS011;20721;47.402;8.550;2024-02-28T12:49:26;21.19;;;20.96;;
2710;SDS011;20721;47.402;8.550;2024-02-28T12:51:45;21.24;;;20.91;;